sensor_id;sensor_type;location;lat;lon;timestamp;temperature;humidity
32534;DHT22;18973;48.580;8.912;2022-08-18T00:02:12;18.70;99.90
32534;DHT22;18973;48.580;8.912;2022-08-18T00:04:38;18.70;99.90
32534;DHT22;18973;48.580;8.912;2022-08-18T00:07:06;18.70;99.90
32534;DHT22;18973;48.580;8.912;2022-08-18T00:09:36;18.70;99.90
32534;DHT22;18973;48.580;8.912;2022-08-18T00:12:08;18.60;99.90
32534;DHT22;18973;48.580;8.912;2022-08-18T00:14:34;18.70;99.90
32534;DHT22;18973;48.580;8.912;2022-08-18T00:17:00;18.70;99.90
32534;DHT22;18973;48.580;8.912;2022-08-18T00:19:26;18.80;99.90
32534;DHT22;18973;48.580;8.912;2022-08-18T00:21:52;18.80;99.90
32534;DHT22;18973;48.580;8.912;2022-08-18T00:24:17;18.80;99.90
32534;DHT22;18973;48.580;8.912;2022-08-18T00:26:43;18.80;99.90
32534;DHT22;18973;48.580;8.912;2022-08-18T00:29:09;18.70;99.90
32534;DHT22;18973;48.580;8.912;2022-08-18T00:31:35;18.70;99.90
32534;DHT22;18973;48.580;8.912;2022-08-18T00:34:00;18.70;99.90
32534;DHT22;18973;48.580;8.912;2022-08-18T00:36:26;18.60;99.90
32534;DHT22;18973;48.580;8.912;2022-08-18T00:38:52;18.60;99.90
32534;DHT22;18973;48.580;8.912;2022-08-18T00:41:19;18.70;99.90
32534;DHT22;18973;48.580;8.912;2022-08-18T00:43:50;18.70;99.90
32534;DHT22;18973;48.580;8.912;2022-08-18T00:46:26;18.80;99.90
32534;DHT22;18973;48.580;8.912;2022-08-18T00:48:52;18.80;99.90
32534;DHT22;18973;48.580;8.912;2022-08-18T00:51:45;18.80;99.90
32534;DHT22;18973;48.580;8.912;2022-08-18T00:54:20;18.80;99.90
32534;DHT22;18973;48.580;8.912;2022-08-18T00:56:49;18.90;99.90
32534;DHT22;18973;48.580;8.912;2022-08-18T01:01:49;18.90;99.90
32534;DHT22;18973;48.580;8.912;2022-08-18T01:04:26;18.90;99.90
32534;DHT22;18973;48.580;8.912;2022-08-18T01:06:58;18.90;99.90
32534;DHT22;18973;48.580;8.912;2022-08-18T01:09:25;18.60;99.90
32534;DHT22;18973;48.580;8.912;2022-08-18T01:11:51;18.40;99.90
32534;DHT22;18973;48.580;8.912;2022-08-18T01:14:17;18.50;99.90
32534;DHT22;18973;48.580;8.912;2022-08-18T01:16:45;18.70;99.90
32534;DHT22;18973;48.580;8.912;2022-08-18T01:19:30;18.70;99.90
32534;DHT22;18973;48.580;8.912;2022-08-18T01:24:55;18.50;99.90
32534;DHT22;18973;48.580;8.912;2022-08-18T01:27:40;18.60;99.90
32534;DHT22;18973;48.580;8.912;2022-08-18T01:30:10;18.70;99.90
32534;DHT22;18973;48.580;8.912;2022-08-18T01:32:37;18.60;99.90
32534;DHT22;18973;48.580;8.912;2022-08-18T01:35:05;18.70;99.90
32534;DHT22;18973;48.580;8.912;2022-08-18T01:37:33;18.70;99.90
32534;DHT22;18973;48.580;8.912;2022-08-18T01:39:59;18.70;99.90
32534;DHT22;18973;48.580;8.912;2022-08-18T01:42:25;18.80;99.90
32534;DHT22;18973;48.580;8.912;2022-08-18T01:44:50;18.90;99.90
32534;DHT22;18973;48.580;8.912;2022-08-18T01:47:17;18.90;99.90
32534;DHT22;18973;48.580;8.912;2022-08-18T01:49:45;18.80;99.90
32534;DHT22;18973;48.580;8.912;2022-08-18T01:52:15;18.60;99.90
32534;DHT22;18973;48.580;8.912;2022-08-18T01:54:46;18.70;99.90
32534;DHT22;18973;48.580;8.912;2022-08-18T01:57:12;18.80;99.90
32534;DHT22;18973;48.580;8.912;2022-08-18T01:59:40;18.80;99.90
32534;DHT22;18973;48.580;8.912;2022-08-18T02:02:08;18.80;99.90
32534;DHT22;18973;48.580;8.912;2022-08-18T02:04:35;18.80;99.90
32534;DHT22;18973;48.580;8.912;2022-08-18T02:07:02;18.70;99.90
32534;DHT22;18973;48.580;8.912;2022-08-18T02:09:28;18.70;99.90
32534;DHT22;18973;48.580;8.912;2022-08-18T02:11:54;18.80;99.90
32534;DHT22;18973;48.580;8.912;2022-08-18T02:14:21;19.00;99.90
32534;DHT22;18973;48.580;8.912;2022-08-18T02:16:47;18.90;99.90
32534;DHT22;18973;48.580;8.912;2022-08-18T02:19:12;18.80;99.90
32534;DHT22;18973;48.580;8.912;2022-08-18T02:21:38;18.90;99.90
32534;DHT22;18973;48.580;8.912;2022-08-18T02:24:04;18.90;99.90
32534;DHT22;18973;48.580;8.912;2022-08-18T02:26:30;18.90;99.90
32534;DHT22;18973;48.580;8.912;2022-08-18T02:28:56;18.80;99.90
32534;DHT22;18973;48.580;8.912;2022-08-18T02:31:23;18.90;99.90
32534;DHT22;18973;48.580;8.912;2022-08-18T02:33:50;18.80;99.90
32534;DHT22;18973;48.580;8.912;2022-08-18T02:36:16;18.80;99.90
32534;DHT22;18973;48.580;8.912;2022-08-18T02:38:42;18.70;99.90
32534;DHT22;18973;48.580;8.912;2022-08-18T02:41:09;18.80;99.90
32534;DHT22;18973;48.580;8.912;2022-08-18T02:43:37;18.80;99.90
32534;DHT22;18973;48.580;8.912;2022-08-18T02:46:04;18.80;99.90
32534;DHT22;18973;48.580;8.912;2022-08-18T02:48:30;18.70;99.90
32534;DHT22;18973;48.580;8.912;2022-08-18T02:51:08;18.60;99.90
32534;DHT22;18973;48.580;8.912;2022-08-18T02:53:35;18.60;99.90
32534;DHT22;18973;48.580;8.912;2022-08-18T02:56:12;18.60;99.90
32534;DHT22;18973;48.580;8.912;2022-08-18T02:59:04;18.70;99.90
32534;DHT22;18973;48.580;8.912;2022-08-18T03:01:36;18.50;99.90
32534;DHT22;18973;48.580;8.912;2022-08-18T03:04:05;18.60;99.90
32534;DHT22;18973;48.580;8.912;2022-08-18T03:06:32;18.70;99.90
32534;DHT22;18973;48.580;8.912;2022-08-18T03:08:59;18.60;99.90
32534;DHT22;18973;48.580;8.912;2022-08-18T03:11:27;18.50;99.90
32534;DHT22;18973;48.580;8.912;2022-08-18T03:13:54;18.40;99.90
32534;DHT22;18973;48.580;8.912;2022-08-18T03:16:21;18.50;99.90
32534;DHT22;18973;48.580;8.912;2022-08-18T03:18:49;18.40;99.90
32534;DHT22;18973;48.580;8.912;2022-08-18T03:21:18;18.30;99.90
32534;DHT22;18973;48.580;8.912;2022-08-18T03:23:47;18.30;99.90
32534;DHT22;18973;48.580;8.912;2022-08-18T03:26:14;18.40;99.90
32534;DHT22;18973;48.580;8.912;2022-08-18T03:28:44;18.50;99.90
32534;DHT22;18973;48.580;8.912;2022-08-18T03:31:11;18.60;99.90
32534;DHT22;18973;48.580;8.912;2022-08-18T03:33:39;18.60;99.90
32534;DHT22;18973;48.580;8.912;2022-08-18T03:36:09;18.60;99.90
32534;DHT22;18973;48.580;8.912;2022-08-18T03:38:37;18.60;99.90
32534;DHT22;18973;48.580;8.912;2022-08-18T03:41:05;18.70;99.90
32534;DHT22;18973;48.580;8.912;2022-08-18T03:43:31;18.50;99.90
32534;DHT22;18973;48.580;8.912;2022-08-18T03:46:01;18.30;99.90
32534;DHT22;18973;48.580;8.912;2022-08-18T03:48:28;18.20;99.90
32534;DHT22;18973;48.580;8.912;2022-08-18T03:50:53;18.30;99.90
32534;DHT22;18973;48.580;8.912;2022-08-18T03:53:19;18.40;99.90
32534;DHT22;18973;48.580;8.912;2022-08-18T03:55:45;18.40;99.90
32534;DHT22;18973;48.580;8.912;2022-08-18T03:58:11;18.40;99.90
32534;DHT22;18973;48.580;8.912;2022-08-18T04:00:40;18.50;99.90
32534;DHT22;18973;48.580;8.912;2022-08-18T04:03:06;18.40;99.90
32534;DHT22;18973;48.580;8.912;2022-08-18T04:05:32;18.40;99.90
32534;DHT22;18973;48.580;8.912;2022-08-18T04:08:00;18.50;99.90
32534;DHT22;18973;48.580;8.912;2022-08-18T04:10:27;18.50;99.90
32534;DHT22;18973;48.580;8.912;2022-08-18T04:12:53;18.60;99.90
32534;DHT22;18973;48.580;8.912;2022-08-18T04:15:19;18.60;99.90
32534;DHT22;18973;48.580;8.912;2022-08-18T04:17:44;18.70;99.90
32534;DHT22;18973;48.580;8.912;2022-08-18T04:20:11;18.70;99.90
32534;DHT22;18973;48.580;8.912;2022-08-18T04:22:38;18.60;99.90
32534;DHT22;18973;48.580;8.912;2022-08-18T04:25:06;18.50;99.90
32534;DHT22;18973;48.580;8.912;2022-08-18T04:27:34;18.50;99.90
32534;DHT22;18973;48.580;8.912;2022-08-18T04:30:00;18.50;99.90
32534;DHT22;18973;48.580;8.912;2022-08-18T04:32:28;18.60;99.90
32534;DHT22;18973;48.580;8.912;2022-08-18T04:34:54;18.60;99.90
32534;DHT22;18973;48.580;8.912;2022-08-18T04:37:20;18.50;99.90
32534;DHT22;18973;48.580;8.912;2022-08-18T04:39:46;18.50;99.90
32534;DHT22;18973;48.580;8.912;2022-08-18T04:42:13;18.50;99.90
32534;DHT22;18973;48.580;8.912;2022-08-18T04:44:39;18.50;99.90
32534;DHT22;18973;48.580;8.912;2022-08-18T04:47:06;18.50;99.90
32534;DHT22;18973;48.580;8.912;2022-08-18T04:49:35;18.50;99.90
32534;DHT22;18973;48.580;8.912;2022-08-18T04:52:04;18.50;99.90
32534;DHT22;18973;48.580;8.912;2022-08-18T04:54:49;18.50;99.90
32534;DHT22;18973;48.580;8.912;2022-08-18T04:57:17;18.50;99.90
32534;DHT22;18973;48.580;8.912;2022-08-18T05:02:29;18.50;99.90
32534;DHT22;18973;48.580;8.912;2022-08-18T05:04:57;18.40;99.90
32534;DHT22;18973;48.580;8.912;2022-08-18T05:07:22;18.50;99.90
32534;DHT22;18973;48.580;8.912;2022-08-18T05:09:49;18.50;99.90
32534;DHT22;18973;48.580;8.912;2022-08-18T05:12:16;18.50;99.90
32534;DHT22;18973;48.580;8.912;2022-08-18T05:14:43;18.50;99.90
32534;DHT22;18973;48.580;8.912;2022-08-18T05:17:10;18.50;99.90
32534;DHT22;18973;48.580;8.912;2022-08-18T05:19:36;18.50;99.90
32534;DHT22;18973;48.580;8.912;2022-08-18T05:22:02;18.50;99.90
32534;DHT22;18973;48.580;8.912;2022-08-18T05:24:29;18.60;99.90
32534;DHT22;18973;48.580;8.912;2022-08-18T05:26:56;18.60;99.90
32534;DHT22;18973;48.580;8.912;2022-08-18T05:29:22;18.70;99.90
32534;DHT22;18973;48.580;8.912;2022-08-18T05:31:49;18.80;99.90
32534;DHT22;18973;48.580;8.912;2022-08-18T05:34:16;18.70;99.90
32534;DHT22;18973;48.580;8.912;2022-08-18T05:39:37;18.80;99.90
32534;DHT22;18973;48.580;8.912;2022-08-18T05:42:16;18.70;99.90
32534;DHT22;18973;48.580;8.912;2022-08-18T05:44:48;18.80;99.90
32534;DHT22;18973;48.580;8.912;2022-08-18T05:47:30;18.80;99.90
32534;DHT22;18973;48.580;8.912;2022-08-18T05:50:09;18.80;99.90
32534;DHT22;18973;48.580;8.912;2022-08-18T05:53:00;18.80;99.90
32534;DHT22;18973;48.580;8.912;2022-08-18T05:55:40;18.80;99.90
32534;DHT22;18973;48.580;8.912;2022-08-18T05:58:50;18.80;99.90
32534;DHT22;18973;48.580;8.912;2022-08-18T06:01:30;18.80;99.90
32534;DHT22;18973;48.580;8.912;2022-08-18T06:04:07;18.80;99.90
32534;DHT22;18973;48.580;8.912;2022-08-18T06:06:35;18.70;99.90
32534;DHT22;18973;48.580;8.912;2022-08-18T06:09:23;18.80;99.90
32534;DHT22;18973;48.580;8.912;2022-08-18T06:11:52;18.80;99.90
32534;DHT22;18973;48.580;8.912;2022-08-18T06:14:18;18.80;99.90
32534;DHT22;18973;48.580;8.912;2022-08-18T06:22:30;18.90;99.90
32534;DHT22;18973;48.580;8.912;2022-08-18T06:25:26;18.90;99.90
32534;DHT22;18973;48.580;8.912;2022-08-18T06:28:02;18.80;99.90
32534;DHT22;18973;48.580;8.912;2022-08-18T06:44:06;19.00;99.90
32534;DHT22;18973;48.580;8.912;2022-08-18T06:52:32;19.20;99.90
32534;DHT22;18973;48.580;8.912;2022-08-18T06:55:15;19.10;99.90
32534;DHT22;18973;48.580;8.912;2022-08-18T06:57:56;19.20;99.90
32534;DHT22;18973;48.580;8.912;2022-08-18T07:00:28;19.20;99.90
32534;DHT22;18973;48.580;8.912;2022-08-18T07:03:06;19.20;99.90
32534;DHT22;18973;48.580;8.912;2022-08-18T07:05:36;19.20;99.90
32534;DHT22;18973;48.580;8.912;2022-08-18T07:10:52;19.20;99.90
32534;DHT22;18973;48.580;8.912;2022-08-18T07:13:25;19.10;99.90
32534;DHT22;18973;48.580;8.912;2022-08-18T07:16:13;19.10;99.90
32534;DHT22;18973;48.580;8.912;2022-08-18T07:18:39;19.10;99.90
32534;DHT22;18973;48.580;8.912;2022-08-18T07:21:05;19.10;99.90
32534;DHT22;18973;48.580;8.912;2022-08-18T07:23:37;19.20;99.90
32534;DHT22;18973;48.580;8.912;2022-08-18T07:28:30;19.20;99.90
32534;DHT22;18973;48.580;8.912;2022-08-18T07:37:17;19.40;99.90
32534;DHT22;18973;48.580;8.912;2022-08-18T07:45:32;19.40;99.90
32534;DHT22;18973;48.580;8.912;2022-08-18T07:48:09;19.40;99.90
32534;DHT22;18973;48.580;8.912;2022-08-18T07:56:05;19.40;99.90
32534;DHT22;18973;48.580;8.912;2022-08-18T07:58:40;19.50;99.90
32534;DHT22;18973;48.580;8.912;2022-08-18T08:06:23;19.60;99.90
32534;DHT22;18973;48.580;8.912;2022-08-18T08:09:22;19.70;99.90
32534;DHT22;18973;48.580;8.912;2022-08-18T08:14:36;20.00;99.90
32534;DHT22;18973;48.580;8.912;2022-08-18T08:22:27;20.20;99.90
32534;DHT22;18973;48.580;8.912;2022-08-18T08:27:50;20.30;99.90
32534;DHT22;18973;48.580;8.912;2022-08-18T08:30:19;20.30;99.90
32534;DHT22;18973;48.580;8.912;2022-08-18T08:32:58;20.50;99.90
32534;DHT22;18973;48.580;8.912;2022-08-18T08:35:49;20.70;99.90
32534;DHT22;18973;48.580;8.912;2022-08-18T08:38:24;21.00;99.90
32534;DHT22;18973;48.580;8.912;2022-08-18T08:43:48;21.20;99.90
32534;DHT22;18973;48.580;8.912;2022-08-18T08:46:21;21.30;99.90
32534;DHT22;18973;48.580;8.912;2022-08-18T08:48:55;21.50;99.90
32534;DHT22;18973;48.580;8.912;2022-08-18T08:51:35;21.60;99.90
32534;DHT22;18973;48.580;8.912;2022-08-18T08:54:05;21.70;99.90
32534;DHT22;18973;48.580;8.912;2022-08-18T08:59:05;21.90;99.90
32534;DHT22;18973;48.580;8.912;2022-08-18T09:06:52;22.70;99.90
32534;DHT22;18973;48.580;8.912;2022-08-18T09:22:55;24.40;99.90
32534;DHT22;18973;48.580;8.912;2022-08-18T09:36:04;25.00;99.90
32534;DHT22;18973;48.580;8.912;2022-08-18T09:38:36;24.70;99.90
32534;DHT22;18973;48.580;8.912;2022-08-18T09:41:30;24.60;99.90
32534;DHT22;18973;48.580;8.912;2022-08-18T09:51:59;25.00;99.90
32534;DHT22;18973;48.580;8.912;2022-08-18T09:54:29;25.20;99.90
32534;DHT22;18973;48.580;8.912;2022-08-18T09:57:05;25.50;99.90
32534;DHT22;18973;48.580;8.912;2022-08-18T10:02:09;26.00;99.90
32534;DHT22;18973;48.580;8.912;2022-08-18T10:04:40;26.10;99.90
32534;DHT22;18973;48.580;8.912;2022-08-18T10:13:00;26.90;99.90
32534;DHT22;18973;48.580;8.912;2022-08-18T10:19:10;26.60;99.90
32534;DHT22;18973;48.580;8.912;2022-08-18T10:21:21;26.40;99.90
32534;DHT22;18973;48.580;8.912;2022-08-18T10:23:58;26.20;99.90
32534;DHT22;18973;48.580;8.912;2022-08-18T10:34:45;26.90;99.90
32534;DHT22;18973;48.580;8.912;2022-08-18T10:37:37;27.00;99.90
32534;DHT22;18973;48.580;8.912;2022-08-18T10:40:24;26.70;99.90
32534;DHT22;18973;48.580;8.912;2022-08-18T10:43:00;26.60;99.90
32534;DHT22;18973;48.580;8.912;2022-08-18T10:45:37;26.50;99.90
32534;DHT22;18973;48.580;8.912;2022-08-18T10:48:34;26.40;99.90
32534;DHT22;18973;48.580;8.912;2022-08-18T10:51:23;26.40;99.90
32534;DHT22;18973;48.580;8.912;2022-08-18T10:54:01;26.40;99.90
32534;DHT22;18973;48.580;8.912;2022-08-18T11:04:54;25.90;99.90
32534;DHT22;18973;48.580;8.912;2022-08-18T11:07:22;25.90;99.90
32534;DHT22;18973;48.580;8.912;2022-08-18T11:09:53;25.90;99.90
32534;DHT22;18973;48.580;8.912;2022-08-18T11:20:41;25.60;99.90
32534;DHT22;18973;48.580;8.912;2022-08-18T11:23:13;25.60;99.90
32534;DHT22;18973;48.580;8.912;2022-08-18T11:25:40;25.70;99.90
32534;DHT22;18973;48.580;8.912;2022-08-18T11:28:19;25.60;99.90
32534;DHT22;18973;48.580;8.912;2022-08-18T11:30:52;25.60;99.90
32534;DHT22;18973;48.580;8.912;2022-08-18T11:33:19;25.50;99.90
32534;DHT22;18973;48.580;8.912;2022-08-18T11:35:52;25.50;99.90
32534;DHT22;18973;48.580;8.912;2022-08-18T11:38:22;25.40;99.90
32534;DHT22;18973;48.580;8.912;2022-08-18T11:40:52;25.30;99.90
32534;DHT22;18973;48.580;8.912;2022-08-18T11:43:32;25.30;99.90
32534;DHT22;18973;48.580;8.912;2022-08-18T11:46:09;25.30;99.90
32534;DHT22;18973;48.580;8.912;2022-08-18T11:48:44;25.20;99.90
32534;DHT22;18973;48.580;8.912;2022-08-18T11:51:29;25.20;99.90
32534;DHT22;18973;48.580;8.912;2022-08-18T11:54:03;25.10;99.90
32534;DHT22;18973;48.580;8.912;2022-08-18T11:56:43;25.10;99.90
32534;DHT22;18973;48.580;8.912;2022-08-18T12:01:52;24.80;99.90
32534;DHT22;18973;48.580;8.912;2022-08-18T12:04:40;24.70;99.90
32534;DHT22;18973;48.580;8.912;2022-08-18T12:07:13;24.50;99.90
32534;DHT22;18973;48.580;8.912;2022-08-18T12:10:28;24.40;99.90
32534;DHT22;18973;48.580;8.912;2022-08-18T12:12:45;24.40;99.90
32534;DHT22;18973;48.580;8.912;2022-08-18T12:17:39;24.30;99.90
32534;DHT22;18973;48.580;8.912;2022-08-18T12:20:09;24.30;99.90
32534;DHT22;18973;48.580;8.912;2022-08-18T12:22:47;24.40;99.90
32534;DHT22;18973;48.580;8.912;2022-08-18T12:25:16;24.40;99.90
32534;DHT22;18973;48.580;8.912;2022-08-18T12:27:43;24.40;99.90
32534;DHT22;18973;48.580;8.912;2022-08-18T12:30:10;24.60;99.90
32534;DHT22;18973;48.580;8.912;2022-08-18T12:32:37;24.70;99.90
32534;DHT22;18973;48.580;8.912;2022-08-18T12:35:05;24.80;99.90
32534;DHT22;18973;48.580;8.912;2022-08-18T12:37:31;24.80;99.90
32534;DHT22;18973;48.580;8.912;2022-08-18T12:39:59;24.80;99.90
32534;DHT22;18973;48.580;8.912;2022-08-18T12:42:25;24.70;99.90
32534;DHT22;18973;48.580;8.912;2022-08-18T12:44:51;24.70;99.90
32534;DHT22;18973;48.580;8.912;2022-08-18T12:47:24;24.80;99.90
32534;DHT22;18973;48.580;8.912;2022-08-18T12:49:51;24.80;99.90
32534;DHT22;18973;48.580;8.912;2022-08-18T12:52:19;24.90;99.90
32534;DHT22;18973;48.580;8.912;2022-08-18T12:54:45;24.90;99.90
32534;DHT22;18973;48.580;8.912;2022-08-18T12:57:27;25.00;99.90
32534;DHT22;18973;48.580;8.912;2022-08-18T12:59:53;24.90;99.90
32534;DHT22;18973;48.580;8.912;2022-08-18T13:02:22;24.90;99.90
32534;DHT22;18973;48.580;8.912;2022-08-18T13:04:48;24.80;99.90
32534;DHT22;18973;48.580;8.912;2022-08-18T13:07:17;24.80;99.90
32534;DHT22;18973;48.580;8.912;2022-08-18T13:09:46;24.80;99.90
32534;DHT22;18973;48.580;8.912;2022-08-18T13:12:12;24.80;99.90
32534;DHT22;18973;48.580;8.912;2022-08-18T13:14:38;24.90;99.90
32534;DHT22;18973;48.580;8.912;2022-08-18T13:17:04;25.00;99.90
32534;DHT22;18973;48.580;8.912;2022-08-18T13:19:30;25.00;99.90
32534;DHT22;18973;48.580;8.912;2022-08-18T13:21:57;25.10;99.90
32534;DHT22;18973;48.580;8.912;2022-08-18T13:24:23;25.10;99.90
32534;DHT22;18973;48.580;8.912;2022-08-18T13:26:49;25.20;99.90
32534;DHT22;18973;48.580;8.912;2022-08-18T13:29:15;25.20;99.90
32534;DHT22;18973;48.580;8.912;2022-08-18T13:31:43;25.20;99.90
32534;DHT22;18973;48.580;8.912;2022-08-18T13:34:09;25.20;99.80
32534;DHT22;18973;48.580;8.912;2022-08-18T13:36:35;25.20;98.70
32534;DHT22;18973;48.580;8.912;2022-08-18T13:39:15;25.20;99.10
32534;DHT22;18973;48.580;8.912;2022-08-18T13:41:41;25.20;98.90
32534;DHT22;18973;48.580;8.912;2022-08-18T13:44:08;25.30;98.80
32534;DHT22;18973;48.580;8.912;2022-08-18T13:46:37;25.40;99.50
32534;DHT22;18973;48.580;8.912;2022-08-18T13:49:17;25.50;98.70
32534;DHT22;18973;48.580;8.912;2022-08-18T13:51:44;25.50;98.80
32534;DHT22;18973;48.580;8.912;2022-08-18T13:54:24;25.50;99.50
32534;DHT22;18973;48.580;8.912;2022-08-18T13:56:51;25.60;98.70
32534;DHT22;18973;48.580;8.912;2022-08-18T13:59:18;25.60;97.90
32534;DHT22;18973;48.580;8.912;2022-08-18T14:01:46;25.70;97.90
32534;DHT22;18973;48.580;8.912;2022-08-18T14:04:13;25.70;98.00
32534;DHT22;18973;48.580;8.912;2022-08-18T14:06:39;25.70;97.40
32534;DHT22;18973;48.580;8.912;2022-08-18T14:09:05;25.70;97.90
32534;DHT22;18973;48.580;8.912;2022-08-18T14:11:32;25.70;97.60
32534;DHT22;18973;48.580;8.912;2022-08-18T14:13:59;25.60;97.50
32534;DHT22;18973;48.580;8.912;2022-08-18T14:16:26;25.70;97.80
32534;DHT22;18973;48.580;8.912;2022-08-18T14:18:51;25.60;97.60
32534;DHT22;18973;48.580;8.912;2022-08-18T14:21:45;25.50;97.60
32534;DHT22;18973;48.580;8.912;2022-08-18T14:24:30;25.40;97.60
32534;DHT22;18973;48.580;8.912;2022-08-18T14:27:15;25.30;97.60
32534;DHT22;18973;48.580;8.912;2022-08-18T14:29:41;25.30;97.90
32534;DHT22;18973;48.580;8.912;2022-08-18T14:32:08;25.30;97.80
32534;DHT22;18973;48.580;8.912;2022-08-18T14:34:34;25.30;98.30
32534;DHT22;18973;48.580;8.912;2022-08-18T14:37:01;25.20;97.80
32534;DHT22;18973;48.580;8.912;2022-08-18T14:39:26;25.20;97.80
32534;DHT22;18973;48.580;8.912;2022-08-18T14:41:52;25.10;97.70
32534;DHT22;18973;48.580;8.912;2022-08-18T14:44:18;25.10;97.70
32534;DHT22;18973;48.580;8.912;2022-08-18T14:46:44;25.10;98.00
32534;DHT22;18973;48.580;8.912;2022-08-18T14:49:12;25.10;97.70
32534;DHT22;18973;48.580;8.912;2022-08-18T14:51:39;25.20;97.90
32534;DHT22;18973;48.580;8.912;2022-08-18T14:54:10;25.10;97.80
32534;DHT22;18973;48.580;8.912;2022-08-18T14:56:36;25.20;97.60
32534;DHT22;18973;48.580;8.912;2022-08-18T14:59:04;25.20;97.90
32534;DHT22;18973;48.580;8.912;2022-08-18T15:01:33;25.20;98.10
32534;DHT22;18973;48.580;8.912;2022-08-18T15:03:59;25.30;98.20
32534;DHT22;18973;48.580;8.912;2022-08-18T15:06:25;25.30;98.40
32534;DHT22;18973;48.580;8.912;2022-08-18T15:08:51;25.30;98.20
32534;DHT22;18973;48.580;8.912;2022-08-18T15:11:17;25.30;97.70
32534;DHT22;18973;48.580;8.912;2022-08-18T15:13:43;25.30;98.30
32534;DHT22;18973;48.580;8.912;2022-08-18T15:16:14;25.30;98.20
32534;DHT22;18973;48.580;8.912;2022-08-18T15:18:43;25.20;98.80
32534;DHT22;18973;48.580;8.912;2022-08-18T15:21:10;25.20;98.50
32534;DHT22;18973;48.580;8.912;2022-08-18T15:23:54;25.20;98.30
32534;DHT22;18973;48.580;8.912;2022-08-18T15:26:39;25.20;98.50
32534;DHT22;18973;48.580;8.912;2022-08-18T15:29:05;25.20;98.00
32534;DHT22;18973;48.580;8.912;2022-08-18T15:31:34;25.20;98.40
32534;DHT22;18973;48.580;8.912;2022-08-18T15:34:00;25.10;98.20
32534;DHT22;18973;48.580;8.912;2022-08-18T15:36:27;25.10;98.20
32534;DHT22;18973;48.580;8.912;2022-08-18T15:38:53;25.10;98.30
32534;DHT22;18973;48.580;8.912;2022-08-18T15:41:40;25.10;98.30
32534;DHT22;18973;48.580;8.912;2022-08-18T15:44:07;25.20;98.40
32534;DHT22;18973;48.580;8.912;2022-08-18T15:46:36;25.20;98.00
32534;DHT22;18973;48.580;8.912;2022-08-18T15:49:03;25.20;98.10
32534;DHT22;18973;48.580;8.912;2022-08-18T15:51:37;25.30;97.80
32534;DHT22;18973;48.580;8.912;2022-08-18T15:54:04;25.40;97.90
32534;DHT22;18973;48.580;8.912;2022-08-18T15:56:30;25.40;97.60
32534;DHT22;18973;48.580;8.912;2022-08-18T15:58:57;25.50;97.70
32534;DHT22;18973;48.580;8.912;2022-08-18T16:01:24;25.40;98.10
32534;DHT22;18973;48.580;8.912;2022-08-18T16:03:51;25.40;98.20
32534;DHT22;18973;48.580;8.912;2022-08-18T16:06:21;25.40;98.50
32534;DHT22;18973;48.580;8.912;2022-08-18T16:08:48;25.50;98.60
32534;DHT22;18973;48.580;8.912;2022-08-18T16:11:15;25.40;98.70
32534;DHT22;18973;48.580;8.912;2022-08-18T16:13:42;25.30;98.30
32534;DHT22;18973;48.580;8.912;2022-08-18T16:16:10;25.20;98.60
32534;DHT22;18973;48.580;8.912;2022-08-18T16:18:37;25.30;98.80
32534;DHT22;18973;48.580;8.912;2022-08-18T16:21:08;25.20;99.20
32534;DHT22;18973;48.580;8.912;2022-08-18T16:23:40;25.20;99.40
32534;DHT22;18973;48.580;8.912;2022-08-18T16:26:07;25.20;99.70
32534;DHT22;18973;48.580;8.912;2022-08-18T16:28:33;25.10;99.90
32534;DHT22;18973;48.580;8.912;2022-08-18T16:31:00;24.90;99.90
32534;DHT22;18973;48.580;8.912;2022-08-18T16:33:26;25.00;99.90
32534;DHT22;18973;48.580;8.912;2022-08-18T16:35:52;24.90;99.90
32534;DHT22;18973;48.580;8.912;2022-08-18T16:38:19;24.70;99.90
32534;DHT22;18973;48.580;8.912;2022-08-18T16:40:45;24.60;99.90
32534;DHT22;18973;48.580;8.912;2022-08-18T16:43:11;24.70;99.90
32534;DHT22;18973;48.580;8.912;2022-08-18T16:45:39;24.60;99.90
32534;DHT22;18973;48.580;8.912;2022-08-18T16:48:08;24.50;99.90
32534;DHT22;18973;48.580;8.912;2022-08-18T16:50:35;24.50;99.90
32534;DHT22;18973;48.580;8.912;2022-08-18T16:53:03;24.60;99.90
32534;DHT22;18973;48.580;8.912;2022-08-18T16:55:30;24.60;99.90
32534;DHT22;18973;48.580;8.912;2022-08-18T16:57:55;24.60;99.90
32534;DHT22;18973;48.580;8.912;2022-08-18T17:00:40;24.60;99.90
32534;DHT22;18973;48.580;8.912;2022-08-18T17:03:25;24.60;99.90
32534;DHT22;18973;48.580;8.912;2022-08-18T17:06:11;24.50;99.90
32534;DHT22;18973;48.580;8.912;2022-08-18T17:08:39;24.50;99.90
32534;DHT22;18973;48.580;8.912;2022-08-18T17:11:11;24.50;99.90
32534;DHT22;18973;48.580;8.912;2022-08-18T17:13:38;24.40;99.90
32534;DHT22;18973;48.580;8.912;2022-08-18T17:16:05;24.30;99.90
32534;DHT22;18973;48.580;8.912;2022-08-18T17:18:32;24.30;99.90
32534;DHT22;18973;48.580;8.912;2022-08-18T17:21:02;24.30;99.90
32534;DHT22;18973;48.580;8.912;2022-08-18T17:23:29;24.20;99.90
32534;DHT22;18973;48.580;8.912;2022-08-18T17:25:56;24.20;99.90
32534;DHT22;18973;48.580;8.912;2022-08-18T17:28:40;24.00;99.90
32534;DHT22;18973;48.580;8.912;2022-08-18T17:31:06;24.00;99.90
32534;DHT22;18973;48.580;8.912;2022-08-18T17:33:36;24.10;99.90
32534;DHT22;18973;48.580;8.912;2022-08-18T17:36:05;24.10;99.90
32534;DHT22;18973;48.580;8.912;2022-08-18T17:41:16;23.90;99.90
32534;DHT22;18973;48.580;8.912;2022-08-18T17:43:46;23.80;99.90
32534;DHT22;18973;48.580;8.912;2022-08-18T17:46:26;23.70;99.90
32534;DHT22;18973;48.580;8.912;2022-08-18T17:49:02;23.60;99.90
32534;DHT22;18973;48.580;8.912;2022-08-18T17:51:36;23.50;99.90
32534;DHT22;18973;48.580;8.912;2022-08-18T17:54:39;23.50;99.90
32534;DHT22;18973;48.580;8.912;2022-08-18T17:57:10;23.50;99.90
32534;DHT22;18973;48.580;8.912;2022-08-18T17:59:39;23.40;99.90
32534;DHT22;18973;48.580;8.912;2022-08-18T18:02:16;23.30;99.90
32534;DHT22;18973;48.580;8.912;2022-08-18T18:04:45;23.20;99.90
32534;DHT22;18973;48.580;8.912;2022-08-18T18:10:14;23.20;99.90
32534;DHT22;18973;48.580;8.912;2022-08-18T18:15:33;23.00;99.90
32534;DHT22;18973;48.580;8.912;2022-08-18T18:21:22;22.90;99.90
32534;DHT22;18973;48.580;8.912;2022-08-18T18:24:13;22.90;99.90
32534;DHT22;18973;48.580;8.912;2022-08-18T18:26:47;22.80;99.90
32534;DHT22;18973;48.580;8.912;2022-08-18T18:29:30;22.70;99.90
32534;DHT22;18973;48.580;8.912;2022-08-18T18:32:06;22.70;99.90
32534;DHT22;18973;48.580;8.912;2022-08-18T18:35:09;22.70;99.90
32534;DHT22;18973;48.580;8.912;2022-08-18T18:40:39;22.70;99.90
32534;DHT22;18973;48.580;8.912;2022-08-18T18:43:33;22.70;99.90
32534;DHT22;18973;48.580;8.912;2022-08-18T18:48:58;22.70;99.90
32534;DHT22;18973;48.580;8.912;2022-08-18T18:54:32;22.70;99.90